sensor_id;sensor_type;location;lat;lon;timestamp;pressure;altitude;pressure_sealevel;temperature;humidity
70009;BME280;59542;37.950;-122.338;2023-09-19T00:00:23;101208.22;;;25.08;51.06
70009;BME280;59542;37.950;-122.338;2023-09-19T00:02:55;101198.41;;;25.01;51.22
70009;BME280;59542;37.950;-122.338;2023-09-19T00:05:29;101212.34;;;24.81;51.27
70009;BME280;59542;37.950;-122.338;2023-09-19T00:07:57;101204.38;;;24.85;51.48
70009;BME280;59542;37.950;-122.338;2023-09-19T00:10:27;101201.25;;;24.72;51.18
70009;BME280;59542;37.950;-122.338;2023-09-19T00:12:57;101203.00;;;24.63;51.19
70009;BME280;59542;37.950;-122.338;2023-09-19T00:15:36;101205.22;;;24.61;51.18
70009;BME280;59542;37.950;-122.338;2023-09-19T00:18:03;101201.94;;;24.59;51.48
70009;BME280;59542;37.950;-122.338;2023-09-19T00:20:32;101199.44;;;24.39;50.99
70009;BME280;59542;37.950;-122.338;2023-09-19T00:23:00;101199.19;;;24.35;51.38
70009;BME280;59542;37.950;-122.338;2023-09-19T00:25:37;101198.69;;;24.28;52.17
70009;BME280;59542;37.950;-122.338;2023-09-19T00:28:04;101195.50;;;24.21;52.07
70009;BME280;59542;37.950;-122.338;2023-09-19T00:30:32;101196.06;;;24.18;52.25
70009;BME280;59542;37.950;-122.338;2023-09-19T00:32:58;101195.63;;;24.06;52.46
70009;BME280;59542;37.950;-122.338;2023-09-19T00:35:26;101190.72;;;24.03;52.97
70009;BME280;59542;37.950;-122.338;2023-09-19T00:37:53;101194.63;;;23.96;53.00
70009;BME280;59542;37.950;-122.338;2023-09-19T00:40:20;101202.06;;;23.91;52.79
70009;BME280;59542;37.950;-122.338;2023-09-19T00:42:47;101197.09;;;23.93;53.22
70009;BME280;59542;37.950;-122.338;2023-09-19T00:45:16;101195.69;;;23.66;53.73
70009;BME280;59542;37.950;-122.338;2023-09-19T00:47:48;101198.75;;;23.55;53.91
70009;BME280;59542;37.950;-122.338;2023-09-19T00:50:17;101193.25;;;23.60;53.55
70009;BME280;59542;37.950;-122.338;2023-09-19T00:52:46;101197.06;;;23.64;53.65
70009;BME280;59542;37.950;-122.338;2023-09-19T00:55:15;101201.00;;;23.42;54.17
70009;BME280;59542;37.950;-122.338;2023-09-19T00:57:42;101212.44;;;23.50;54.12
70009;BME280;59542;37.950;-122.338;2023-09-19T01:00:10;101213.69;;;23.28;54.02
70009;BME280;59542;37.950;-122.338;2023-09-19T01:02:43;101202.16;;;23.31;54.36
70009;BME280;59542;37.950;-122.338;2023-09-19T01:05:11;101211.25;;;23.22;54.62
70009;BME280;59542;37.950;-122.338;2023-09-19T01:07:38;101218.66;;;23.16;54.73
70009;BME280;59542;37.950;-122.338;2023-09-19T01:10:09;101214.88;;;23.07;55.21
70009;BME280;59542;37.950;-122.338;2023-09-19T01:12:57;101225.84;;;22.97;55.11
70009;BME280;59542;37.950;-122.338;2023-09-19T01:18:30;101234.03;;;22.86;55.27
70009;BME280;59542;37.950;-122.338;2023-09-19T01:29:50;101242.06;;;22.42;57.35
70009;BME280;59542;37.950;-122.338;2023-09-19T01:32:21;101238.78;;;22.50;57.37
70009;BME280;59542;37.950;-122.338;2023-09-19T01:34:55;101236.59;;;22.42;57.17
70009;BME280;59542;37.950;-122.338;2023-09-19T01:37:30;101249.72;;;22.35;57.55
70009;BME280;59542;37.950;-122.338;2023-09-19T01:39:58;101246.75;;;22.21;58.10
70009;BME280;59542;37.950;-122.338;2023-09-19T01:48:33;101246.75;;;22.21;58.24
70009;BME280;59542;37.950;-122.338;2023-09-19T01:51:02;101261.19;;;22.11;58.15
70009;BME280;59542;37.950;-122.338;2023-09-19T01:54:00;101260.34;;;22.06;58.22
70009;BME280;59542;37.950;-122.338;2023-09-19T01:56:57;101263.06;;;22.06;58.33
70009;BME280;59542;37.950;-122.338;2023-09-19T01:59:34;101263.06;;;21.96;58.60
70009;BME280;59542;37.950;-122.338;2023-09-19T02:02:02;101271.22;;;21.91;58.76
70009;BME280;59542;37.950;-122.338;2023-09-19T02:04:29;101278.06;;;21.93;59.17
70009;BME280;59542;37.950;-122.338;2023-09-19T02:06:56;101278.31;;;21.86;58.91
70009;BME280;59542;37.950;-122.338;2023-09-19T02:09:22;101279.69;;;21.89;59.04
70009;BME280;59542;37.950;-122.338;2023-09-19T02:11:49;101282.13;;;21.85;59.21
70009;BME280;59542;37.950;-122.338;2023-09-19T02:14:15;101282.38;;;21.79;59.58
70009;BME280;59542;37.950;-122.338;2023-09-19T02:16:41;101280.47;;;21.69;59.54
70009;BME280;59542;37.950;-122.338;2023-09-19T02:19:07;101282.34;;;21.64;59.98
70009;BME280;59542;37.950;-122.338;2023-09-19T02:21:34;101281.00;;;21.61;60.31
70009;BME280;59542;37.950;-122.338;2023-09-19T02:24:00;101287.53;;;21.55;58.05
70009;BME280;59542;37.950;-122.338;2023-09-19T02:26:26;101289.63;;;21.38;56.37
70009;BME280;59542;37.950;-122.338;2023-09-19T02:28:53;101282.00;;;21.29;55.47
70009;BME280;59542;37.950;-122.338;2023-09-19T02:31:19;101287.28;;;21.04;54.61
70009;BME280;59542;37.950;-122.338;2023-09-19T02:33:46;101286.19;;;21.00;54.80
70009;BME280;59542;37.950;-122.338;2023-09-19T02:36:12;101288.53;;;20.81;54.88
70009;BME280;59542;37.950;-122.338;2023-09-19T02:38:42;101293.13;;;20.75;54.85
70009;BME280;59542;37.950;-122.338;2023-09-19T02:41:09;101291.22;;;20.76;54.99
70009;BME280;59542;37.950;-122.338;2023-09-19T02:43:36;101292.00;;;20.66;54.37
70009;BME280;59542;37.950;-122.338;2023-09-19T02:46:02;101296.84;;;20.64;54.95
70009;BME280;59542;37.950;-122.338;2023-09-19T02:48:29;101300.94;;;20.62;53.97
70009;BME280;59542;37.950;-122.338;2023-09-19T02:50:55;101294.47;;;20.41;54.85
70009;BME280;59542;37.950;-122.338;2023-09-19T02:53:21;101289.41;;;20.17;55.71
70009;BME280;59542;37.950;-122.338;2023-09-19T02:55:48;101286.09;;;20.15;55.69
70009;BME280;59542;37.950;-122.338;2023-09-19T02:58:14;101295.06;;;20.11;56.52
70009;BME280;59542;37.950;-122.338;2023-09-19T03:00:41;101293.16;;;20.11;56.13
70009;BME280;59542;37.950;-122.338;2023-09-19T03:03:08;101295.84;;;20.06;57.02
70009;BME280;59542;37.950;-122.338;2023-09-19T03:05:34;101296.00;;;19.94;57.03
70009;BME280;59542;37.950;-122.338;2023-09-19T03:08:01;101301.22;;;20.01;57.15
70009;BME280;59542;37.950;-122.338;2023-09-19T03:10:27;101300.13;;;20.02;57.45
70009;BME280;59542;37.950;-122.338;2023-09-19T03:12:55;101301.81;;;19.81;57.98
70009;BME280;59542;37.950;-122.338;2023-09-19T03:15:21;101308.50;;;19.68;58.57
70009;BME280;59542;37.950;-122.338;2023-09-19T03:17:48;101304.38;;;19.88;58.30
70009;BME280;59542;37.950;-122.338;2023-09-19T03:20:15;101299.31;;;20.01;57.88
70009;BME280;59542;37.950;-122.338;2023-09-19T03:22:45;101304.91;;;19.90;57.65
70009;BME280;59542;37.950;-122.338;2023-09-19T03:25:12;101303.69;;;19.75;58.45
70009;BME280;59542;37.950;-122.338;2023-09-19T03:27:39;101303.19;;;19.78;57.61
70009;BME280;59542;37.950;-122.338;2023-09-19T03:30:06;101307.47;;;19.74;57.78
70009;BME280;59542;37.950;-122.338;2023-09-19T03:32:47;101298.81;;;19.77;57.90
70009;BME280;59542;37.950;-122.338;2023-09-19T03:35:18;101301.22;;;19.74;57.73
70009;BME280;59542;37.950;-122.338;2023-09-19T03:37:45;101299.22;;;19.64;58.44
70009;BME280;59542;37.950;-122.338;2023-09-19T03:40:12;101307.34;;;19.64;58.19
70009;BME280;59542;37.950;-122.338;2023-09-19T03:42:42;101305.56;;;19.53;58.29
70009;BME280;59542;37.950;-122.338;2023-09-19T03:45:09;101312.03;;;19.47;59.05
70009;BME280;59542;37.950;-122.338;2023-09-19T03:47:39;101316.59;;;19.63;58.20
70009;BME280;59542;37.950;-122.338;2023-09-19T03:50:06;101318.53;;;19.46;58.87
70009;BME280;59542;37.950;-122.338;2023-09-19T03:52:41;101317.13;;;19.60;58.85
70009;BME280;59542;37.950;-122.338;2023-09-19T03:55:08;101314.41;;;19.60;58.69
70009;BME280;59542;37.950;-122.338;2023-09-19T03:57:36;101305.84;;;19.30;59.40
70009;BME280;59542;37.950;-122.338;2023-09-19T04:00:03;101308.63;;;19.35;59.86
70009;BME280;59542;37.950;-122.338;2023-09-19T04:02:38;101308.13;;;19.38;59.35
70009;BME280;59542;37.950;-122.338;2023-09-19T04:05:05;101317.09;;;19.38;59.25
70009;BME280;59542;37.950;-122.338;2023-09-19T04:07:32;101320.34;;;19.18;59.93
70009;BME280;59542;37.950;-122.338;2023-09-19T04:09:58;101319.81;;;19.16;60.72
70009;BME280;59542;37.950;-122.338;2023-09-19T04:12:24;101317.84;;;19.12;60.63
70009;BME280;59542;37.950;-122.338;2023-09-19T04:14:50;101325.38;;;19.10;60.57
70009;BME280;59542;37.950;-122.338;2023-09-19T04:17:17;101324.00;;;19.07;60.44
70009;BME280;59542;37.950;-122.338;2023-09-19T04:19:44;101317.84;;;19.12;60.51
70009;BME280;59542;37.950;-122.338;2023-09-19T04:22:11;101325.56;;;19.03;60.88
70009;BME280;59542;37.950;-122.338;2023-09-19T04:24:38;101315.66;;;18.92;61.51
70009;BME280;59542;37.950;-122.338;2023-09-19T04:27:05;101323.38;;;19.00;61.50
70009;BME280;59542;37.950;-122.338;2023-09-19T04:29:33;101317.44;;;19.03;61.28
70009;BME280;59542;37.950;-122.338;2023-09-19T04:31:59;101324.19;;;19.01;61.51
70009;BME280;59542;37.950;-122.338;2023-09-19T04:34:25;101317.84;;;19.12;61.56
70009;BME280;59542;37.950;-122.338;2023-09-19T04:36:52;101328.81;;;19.00;61.81
70009;BME280;59542;37.950;-122.338;2023-09-19T04:39:18;101329.81;;;18.94;61.92
70009;BME280;59542;37.950;-122.338;2023-09-19T04:41:45;101325.19;;;18.94;61.74
70009;BME280;59542;37.950;-122.338;2023-09-19T04:44:13;101327.09;;;18.94;62.08
70009;BME280;59542;37.950;-122.338;2023-09-19T04:46:40;101319.44;;;18.91;62.15
70009;BME280;59542;37.950;-122.338;2023-09-19T04:49:06;101319.19;;;18.92;62.41
70009;BME280;59542;37.950;-122.338;2023-09-19T04:51:32;101317.94;;;19.00;62.44
70009;BME280;59542;37.950;-122.338;2023-09-19T04:54:00;101320.34;;;18.96;62.45
70009;BME280;59542;37.950;-122.338;2023-09-19T04:56:27;101314.66;;;18.98;62.30
70009;BME280;59542;37.950;-122.338;2023-09-19T04:58:54;101320.84;;;18.93;63.02
70009;BME280;59542;37.950;-122.338;2023-09-19T05:01:21;101323.97;;;18.85;62.77
70009;BME280;59542;37.950;-122.338;2023-09-19T05:03:48;101327.44;;;18.81;63.29
70009;BME280;59542;37.950;-122.338;2023-09-19T05:06:21;101336.22;;;18.88;63.23
70009;BME280;59542;37.950;-122.338;2023-09-19T05:08:48;101338.34;;;18.86;63.13
70009;BME280;59542;37.950;-122.338;2023-09-19T05:11:21;101320.44;;;18.85;65.85
70009;BME280;59542;37.950;-122.338;2023-09-19T05:13:49;101321.25;;;18.85;67.24
70009;BME280;59542;37.950;-122.338;2023-09-19T05:16:21;101320.84;;;18.93;69.69
70009;BME280;59542;37.950;-122.338;2023-09-19T05:18:47;101325.03;;;18.84;70.62
70009;BME280;59542;37.950;-122.338;2023-09-19T05:21:15;101329.50;;;18.73;71.52
70009;BME280;59542;37.950;-122.338;2023-09-19T05:23:41;101324.22;;;18.67;72.73
70009;BME280;59542;37.950;-122.338;2023-09-19T05:26:08;101327.94;;;18.61;73.10
70009;BME280;59542;37.950;-122.338;2023-09-19T05:28:34;101331.53;;;18.50;73.68
70009;BME280;59542;37.950;-122.338;2023-09-19T05:31:01;101332.56;;;18.65;73.95
70009;BME280;59542;37.950;-122.338;2023-09-19T05:33:30;101330.22;;;18.35;75.34
70009;BME280;59542;37.950;-122.338;2023-09-19T05:35:57;101324.72;;;18.30;74.98
70009;BME280;59542;37.950;-122.338;2023-09-19T05:38:23;101327.66;;;18.29;75.61
70009;BME280;59542;37.950;-122.338;2023-09-19T05:40:52;101325.94;;;18.23;76.17
70009;BME280;59542;37.950;-122.338;2023-09-19T05:43:18;101328.81;;;18.16;76.94
70009;BME280;59542;37.950;-122.338;2023-09-19T05:45:44;101321.44;;;18.28;76.07
70009;BME280;59542;37.950;-122.338;2023-09-19T05:48:12;101318.47;;;18.13;76.83
70009;BME280;59542;37.950;-122.338;2023-09-19T05:50:40;101330.91;;;17.97;77.92
70009;BME280;59542;37.950;-122.338;2023-09-19T05:53:07;101334.88;;;18.06;77.60
70009;BME280;59542;37.950;-122.338;2023-09-19T05:55:33;101340.28;;;18.06;77.72
70009;BME280;59542;37.950;-122.338;2023-09-19T05:57:59;101335.72;;;18.24;77.11
70009;BME280;59542;37.950;-122.338;2023-09-19T06:00:26;101331.94;;;18.25;77.13
70009;BME280;59542;37.950;-122.338;2023-09-19T06:02:57;101333.22;;;18.05;77.54
70009;BME280;59542;37.950;-122.338;2023-09-19T06:05:27;101339.63;;;17.99;77.64
70009;BME280;59542;37.950;-122.338;2023-09-19T06:07:53;101338.50;;;17.83;78.37
70009;BME280;59542;37.950;-122.338;2023-09-19T06:10:20;101335.31;;;17.86;78.33
70009;BME280;59542;37.950;-122.338;2023-09-19T06:12:46;101330.13;;;17.85;78.48
70009;BME280;59542;37.950;-122.338;2023-09-19T06:15:14;101335.09;;;17.88;78.08
70009;BME280;59542;37.950;-122.338;2023-09-19T06:17:55;101338.88;;;17.75;78.43
70009;BME280;59542;37.950;-122.338;2023-09-19T06:20:23;101346.56;;;17.66;78.83
70009;BME280;59542;37.950;-122.338;2023-09-19T06:22:49;101351.84;;;17.61;78.73
70009;BME280;59542;37.950;-122.338;2023-09-19T06:25:17;101345.63;;;17.61;79.18
70009;BME280;59542;37.950;-122.338;2023-09-19T06:27:49;101351.16;;;17.54;79.60
70009;BME280;59542;37.950;-122.338;2023-09-19T06:30:18;101352.22;;;17.53;79.88
70009;BME280;59542;37.950;-122.338;2023-09-19T06:32:44;101351.38;;;17.64;80.00
70009;BME280;59542;37.950;-122.338;2023-09-19T06:35:12;101349.63;;;17.58;79.70
70009;BME280;59542;37.950;-122.338;2023-09-19T06:37:39;101361.69;;;17.39;81.35
70009;BME280;59542;37.950;-122.338;2023-09-19T06:40:07;101363.09;;;17.41;81.34
70009;BME280;59542;37.950;-122.338;2023-09-19T06:42:40;101358.25;;;17.32;81.79
70009;BME280;59542;37.950;-122.338;2023-09-19T06:45:07;101362.75;;;17.38;81.79
70009;BME280;59542;37.950;-122.338;2023-09-19T06:47:33;101360.28;;;17.25;82.35
70009;BME280;59542;37.950;-122.338;2023-09-19T06:49:59;101360.06;;;17.14;82.91
70009;BME280;59542;37.950;-122.338;2023-09-19T06:52:28;101369.81;;;17.15;83.08
70009;BME280;59542;37.950;-122.338;2023-09-19T06:54:54;101365.00;;;17.29;83.27
70009;BME280;59542;37.950;-122.338;2023-09-19T06:57:20;101359.44;;;17.36;82.64
70009;BME280;59542;37.950;-122.338;2023-09-19T06:59:47;101358.75;;;17.29;83.01
70009;BME280;59542;37.950;-122.338;2023-09-19T07:02:14;101356.06;;;17.29;83.36
70009;BME280;59542;37.950;-122.338;2023-09-19T07:04:40;101359.94;;;17.33;83.20
70009;BME280;59542;37.950;-122.338;2023-09-19T07:07:06;101343.13;;;17.07;84.37
70009;BME280;59542;37.950;-122.338;2023-09-19T07:09:36;101343.00;;;17.14;84.07
70009;BME280;59542;37.950;-122.338;2023-09-19T07:12:02;101345.72;;;17.14;84.33
70009;BME280;59542;37.950;-122.338;2023-09-19T07:14:29;101351.72;;;17.16;84.67
70009;BME280;59542;37.950;-122.338;2023-09-19T07:16:56;101342.53;;;17.17;84.76
70009;BME280;59542;37.950;-122.338;2023-09-19T07:19:22;101350.91;;;16.92;85.55
70009;BME280;59542;37.950;-122.338;2023-09-19T07:21:48;101345.38;;;17.10;84.89
70009;BME280;59542;37.950;-122.338;2023-09-19T07:24:16;101348.31;;;16.85;86.92
70009;BME280;59542;37.950;-122.338;2023-09-19T07:26:42;101348.31;;;16.97;86.15
70009;BME280;59542;37.950;-122.338;2023-09-19T07:29:09;101347.38;;;16.80;87.01
70009;BME280;59542;37.950;-122.338;2023-09-19T07:31:35;101348.56;;;16.72;87.96
70009;BME280;59542;37.950;-122.338;2023-09-19T07:34:01;101345.03;;;16.72;88.21
70009;BME280;59542;37.950;-122.338;2023-09-19T07:36:29;101350.69;;;16.94;87.76
70009;BME280;59542;37.950;-122.338;2023-09-19T07:38:56;101348.31;;;16.85;87.92
70009;BME280;59542;37.950;-122.338;2023-09-19T07:41:24;101337.13;;;16.70;88.12
70009;BME280;59542;37.950;-122.338;2023-09-19T07:43:51;101335.84;;;16.61;89.14
70009;BME280;59542;37.950;-122.338;2023-09-19T07:46:18;101339.81;;;16.70;89.04
70009;BME280;59542;37.950;-122.338;2023-09-19T07:48:44;101336.19;;;16.76;88.86
70009;BME280;59542;37.950;-122.338;2023-09-19T07:51:14;101339.16;;;16.75;89.22
70009;BME280;59542;37.950;-122.338;2023-09-19T07:53:41;101340.66;;;16.71;89.55
70009;BME280;59542;37.950;-122.338;2023-09-19T07:56:09;101335.50;;;16.81;89.15
70009;BME280;59542;37.950;-122.338;2023-09-19T07:58:39;101336.53;;;16.56;90.09
70009;BME280;59542;37.950;-122.338;2023-09-19T08:01:08;101341.84;;;16.75;89.47
70009;BME280;59542;37.950;-122.338;2023-09-19T08:03:35;101346.94;;;16.83;89.45
70009;BME280;59542;37.950;-122.338;2023-09-19T08:06:08;101347.75;;;16.72;89.95
70009;BME280;59542;37.950;-122.338;2023-09-19T08:08:35;101336.41;;;16.63;90.03
70009;BME280;59542;37.950;-122.338;2023-09-19T08:11:05;101337.09;;;16.58;90.04
70009;BME280;59542;37.950;-122.338;2023-09-19T08:13:39;101337.50;;;16.74;89.47
70009;BME280;59542;37.950;-122.338;2023-09-19T08:16:15;101343.38;;;16.71;89.06
70009;BME280;59542;37.950;-122.338;2023-09-19T08:18:42;101337.94;;;16.59;89.80
70009;BME280;59542;37.950;-122.338;2023-09-19T08:21:11;101340.06;;;16.57;89.65
70009;BME280;59542;37.950;-122.338;2023-09-19T08:23:38;101338.88;;;16.53;90.13
70009;BME280;59542;37.950;-122.338;2023-09-19T08:26:05;101339.81;;;16.70;89.56
70009;BME280;59542;37.950;-122.338;2023-09-19T08:28:35;101348.53;;;16.60;89.83
70009;BME280;59542;37.950;-122.338;2023-09-19T08:31:03;101351.28;;;16.72;89.08
70009;BME280;59542;37.950;-122.338;2023-09-19T08:33:35;101345.91;;;16.66;89.10
70009;BME280;59542;37.950;-122.338;2023-09-19T08:36:03;101343.13;;;16.60;89.08
70009;BME280;59542;37.950;-122.338;2023-09-19T08:38:34;101346.72;;;16.54;89.39
70009;BME280;59542;37.950;-122.338;2023-09-19T08:41:05;101345.56;;;16.50;89.52
70009;BME280;59542;37.950;-122.338;2023-09-19T08:43:33;101345.78;;;16.37;90.82
70009;BME280;59542;37.950;-122.338;2023-09-19T08:48:32;101336.63;;;16.38;91.20
70009;BME280;59542;37.950;-122.338;2023-09-19T08:51:27;101342.13;;;16.43;91.55
70009;BME280;59542;37.950;-122.338;2023-09-19T08:54:08;101347.78;;;16.42;91.29
70009;BME280;59542;37.950;-122.338;2023-09-19T08:56:41;101339.53;;;16.36;91.39
70009;BME280;59542;37.950;-122.338;2023-09-19T08:59:09;101345.78;;;16.37;91.37
70009;BME280;59542;37.950;-122.338;2023-09-19T09:01:38;101341.66;;;16.23;92.37
70009;BME280;59542;37.950;-122.338;2023-09-19T09:04:09;101346.25;;;16.34;92.26
70009;BME280;59542;37.950;-122.338;2023-09-19T09:06:39;101341.28;;;16.31;92.48
70009;BME280;59542;37.950;-122.338;2023-09-19T09:09:06;101338.00;;;16.29;92.63
70009;BME280;59542;37.950;-122.338;2023-09-19T09:11:36;101340.59;;;16.24;92.89
70009;BME280;59542;37.950;-122.338;2023-09-19T09:14:06;101339.91;;;16.40;92.34
70009;BME280;59542;37.950;-122.338;2023-09-19T09:16:36;101337.91;;;16.35;92.51
70009;BME280;59542;37.950;-122.338;2023-09-19T09:19:03;101331.31;;;16.31;92.64
70009;BME280;59542;37.950;-122.338;2023-09-19T09:21:30;101330.28;;;16.32;92.22
70009;BME280;59542;37.950;-122.338;2023-09-19T09:24:28;101334.72;;;16.27;92.45
70009;BME280;59542;37.950;-122.338;2023-09-19T09:26:59;101329.78;;;16.24;92.33
70009;BME280;59542;37.950;-122.338;2023-09-19T09:29:45;101327.06;;;16.24;91.75
70009;BME280;59542;37.950;-122.338;2023-09-19T09:32:30;101328.84;;;16.30;91.52
70009;BME280;59542;37.950;-122.338;2023-09-19T09:35:07;101328.97;;;16.35;90.77
70009;BME280;59542;37.950;-122.338;2023-09-19T09:37:43;101326.94;;;16.19;91.05
70009;BME280;59542;37.950;-122.338;2023-09-19T09:40:09;101325.53;;;16.16;91.11
70009;BME280;59542;37.950;-122.338;2023-09-19T09:42:38;101329.38;;;16.08;90.98
70009;BME280;59542;37.950;-122.338;2023-09-19T09:45:19;101327.06;;;16.12;90.94
70009;BME280;59542;37.950;-122.338;2023-09-19T09:48:03;101335.41;;;16.22;90.28
70009;BME280;59542;37.950;-122.338;2023-09-19T09:50:46;101340.41;;;16.07;90.72
70009;BME280;59542;37.950;-122.338;2023-09-19T09:53:26;101336.41;;;16.09;90.48
70009;BME280;59542;37.950;-122.338;2023-09-19T09:56:09;101337.47;;;16.08;90.44
70009;BME280;59542;37.950;-122.338;2023-09-19T09:58:59;101335.56;;;15.97;90.20
70009;BME280;59542;37.950;-122.338;2023-09-19T10:01:26;101331.91;;;16.33;89.35
70009;BME280;59542;37.950;-122.338;2023-09-19T10:03:59;101335.59;;;16.09;89.93
70009;BME280;59542;37.950;-122.338;2023-09-19T10:06:26;101328.38;;;15.91;90.83
70009;BME280;59542;37.950;-122.338;2023-09-19T10:09:04;101324.28;;;15.89;90.67
70009;BME280;59542;37.950;-122.338;2023-09-19T10:11:46;101310.59;;;16.14;89.99
70009;BME280;59542;37.950;-122.338;2023-09-19T10:14:17;101310.97;;;16.05;90.12
70009;BME280;59542;37.950;-122.338;2023-09-19T10:16:49;101307.50;;;15.98;89.72
70009;BME280;59542;37.950;-122.338;2023-09-19T10:19:33;101313.09;;;15.85;90.25
70009;BME280;59542;37.950;-122.338;2023-09-19T10:22:04;101302.84;;;15.75;90.43
70009;BME280;59542;37.950;-122.338;2023-09-19T10:24:34;101303.81;;;15.81;90.46
70009;BME280;59542;37.950;-122.338;2023-09-19T10:27:02;101299.09;;;16.06;89.77
70009;BME280;59542;37.950;-122.338;2023-09-19T10:29:32;101294.66;;;15.82;89.83
70009;BME280;59542;37.950;-122.338;2023-09-19T10:32:03;101297.78;;;15.67;91.22
70009;BME280;59542;37.950;-122.338;2023-09-19T10:34:35;101295.44;;;15.71;92.23
70009;BME280;59542;37.950;-122.338;2023-09-19T10:37:02;101289.94;;;15.66;92.48
70009;BME280;59542;37.950;-122.338;2023-09-19T10:39:32;101288.78;;;15.73;91.98
70009;BME280;59542;37.950;-122.338;2023-09-19T10:42:02;101285.56;;;15.65;91.75
70009;BME280;59542;37.950;-122.338;2023-09-19T10:44:32;101285.34;;;15.66;91.91
70009;BME280;59542;37.950;-122.338;2023-09-19T10:46:59;101277.72;;;15.63;91.88
70009;BME280;59542;37.950;-122.338;2023-09-19T10:49:25;101281.66;;;15.61;92.10
70009;BME280;59542;37.950;-122.338;2023-09-19T10:51:55;101280.44;;;15.75;91.93
70009;BME280;59542;37.950;-122.338;2023-09-19T10:54:28;101281.16;;;15.82;92.32
70009;BME280;59542;37.950;-122.338;2023-09-19T10:56:55;101280.31;;;15.70;92.99
70009;BME280;59542;37.950;-122.338;2023-09-19T10:59:24;101284.00;;;15.87;92.31
70009;BME280;59542;37.950;-122.338;2023-09-19T11:01:52;101283.28;;;15.80;92.69
70009;BME280;59542;37.950;-122.338;2023-09-19T11:07:11;101278.47;;;15.82;92.57
70009;BME280;59542;37.950;-122.338;2023-09-19T11:15:07;101276.00;;;15.80;93.33
70009;BME280;59542;37.950;-122.338;2023-09-19T11:17:37;101273.31;;;15.80;94.01
70009;BME280;59542;37.950;-122.338;2023-09-19T11:30:53;101268.72;;;15.81;94.77
70009;BME280;59542;37.950;-122.338;2023-09-19T11:33:30;101269.16;;;15.66;94.28
70009;BME280;59542;37.950;-122.338;2023-09-19T11:36:09;101265.56;;;15.72;94.69
70009;BME280;59542;37.950;-122.338;2023-09-19T11:46:30;101276.34;;;15.72;95.22
70009;BME280;59542;37.950;-122.338;2023-09-19T11:49:06;101266.38;;;15.73;95.61
70009;BME280;59542;37.950;-122.338;2023-09-19T11:51:43;101265.56;;;15.72;95.48
70009;BME280;59542;37.950;-122.338;2023-09-19T11:54:14;101262.03;;;15.72;95.39
70009;BME280;59542;37.950;-122.338;2023-09-19T11:56:45;101271.03;;;15.66;95.39
70009;BME280;59542;37.950;-122.338;2023-09-19T11:59:11;101266.84;;;15.81;94.54
70009;BME280;59542;37.950;-122.338;2023-09-19T12:01:51;101269.59;;;15.63;95.02
70009;BME280;59542;37.950;-122.338;2023-09-19T12:04:43;101275.31;;;15.55;94.81
70009;BME280;59542;37.950;-122.338;2023-09-19T12:07:12;101271.41;;;15.51;94.98
70009;BME280;59542;37.950;-122.338;2023-09-19T12:09:43;101278.53;;;15.45;94.93
70009;BME280;59542;37.950;-122.338;2023-09-19T12:12:25;101279.22;;;15.41;94.52
70009;BME280;59542;37.950;-122.338;2023-09-19T12:14:56;101277.19;;;15.36;94.38
70009;BME280;59542;37.950;-122.338;2023-09-19T12:17:57;101277.19;;;15.36;94.39
70009;BME280;59542;37.950;-122.338;2023-09-19T12:20:16;101269.94;;;15.37;94.02
70009;BME280;59542;37.950;-122.338;2023-09-19T12:22:43;101274.72;;;15.35;93.69
70009;BME280;59542;37.950;-122.338;2023-09-19T12:25:11;101274.59;;;15.29;93.82
70009;BME280;59542;37.950;-122.338;2023-09-19T12:27:45;101280.41;;;15.26;93.61
70009;BME280;59542;37.950;-122.338;2023-09-19T12:30:27;101275.25;;;15.25;93.12
70009;BME280;59542;37.950;-122.338;2023-09-19T12:32:54;101277.97;;;15.25;92.95
70009;BME280;59542;37.950;-122.338;2023-09-19T12:35:27;101277.59;;;15.21;92.88
70009;BME280;59542;37.950;-122.338;2023-09-19T12:37:56;101280.06;;;15.23;93.10
70009;BME280;59542;37.950;-122.338;2023-09-19T12:40:23;101281.13;;;15.22;93.04
70009;BME280;59542;37.950;-122.338;2023-09-19T12:42:54;101276.69;;;15.27;92.61
70009;BME280;59542;37.950;-122.338;2023-09-19T12:45:30;101283.78;;;15.40;91.56
70009;BME280;59542;37.950;-122.338;2023-09-19T12:48:26;101282.25;;;15.32;91.98
70009;BME280;59542;37.950;-122.338;2023-09-19T12:53:27;101271.97;;;15.23;93.06
70009;BME280;59542;37.950;-122.338;2023-09-19T12:55:59;101280.41;;;15.26;93.31
70009;BME280;59542;37.950;-122.338;2023-09-19T12:58:26;101275.41;;;15.30;93.15
70009;BME280;59542;37.950;-122.338;2023-09-19T13:00:53;101276.13;;;15.55;93.20
70009;BME280;59542;37.950;-122.338;2023-09-19T13:05:54;101276.47;;;15.59;94.68
70009;BME280;59542;37.950;-122.338;2023-09-19T13:08:29;101281.81;;;15.47;95.52
70009;BME280;59542;37.950;-122.338;2023-09-19T13:11:08;101281.00;;;15.47;95.86
70009;BME280;59542;37.950;-122.338;2023-09-19T13:13:40;101280.16;;;15.65;95.64
70009;BME280;59542;37.950;-122.338;2023-09-19T13:16:07;101285.72;;;15.51;96.03
70009;BME280;59542;37.950;-122.338;2023-09-19T13:19:03;101280.03;;;15.90;95.56
70009;BME280;59542;37.950;-122.338;2023-09-19T13:21:34;101285.94;;;15.68;95.93
70009;BME280;59542;37.950;-122.338;2023-09-19T13:24:37;101284.47;;;15.84;95.73
70009;BME280;59542;37.950;-122.338;2023-09-19T13:27:06;101282.84;;;15.83;94.51